Time;durP1;ratioP1;P1;durP2;ratioP2;P2;SDS_P1;SDS_P2;PMS_P1;PMS_P2;Temp;Humidity;BMP_temperature;BMP_pressure;BME280_temperature;BME280_humidity;BME280_pressure;Samples;Min_cycle;Max_cycle;Signal;HPM_P1;HPM_P2
2021/06/08 00:01:17;;;;;;;10.88;9.02;;;;;;;;;;5084566;28;20477;-67
2021/06/08 00:03:43;;;;;;;11.10;9.60;;;;;;;;;;5084673;28;21176;-67
2021/06/08 00:06:09;;;;;;;10.95;9.35;;;;;;;;;;5084838;28;20386;-68
2021/06/08 00:08:35;;;;;;;11.07;9.80;;;;;;;;;;5086703;28;20394;-66
2021/06/08 00:11:01;;;;;;;13.23;10.90;;;;;;;;;;5084227;28;20693;-66
2021/06/08 00:13:27;;;;;;;11.25;9.50;;;;;;;;;;5079794;28;20787;-67
2021/06/08 00:15:53;;;;;;;11.88;10.00;;;;;;;;;;5084292;28;20396;-67
2021/06/08 00:18:19;;;;;;;11.20;9.40;;;;;;;;;;5086378;28;20390;-67
2021/06/08 00:20:45;;;;;;;13.25;9.52;;;;;;;;;;5085698;28;20461;-67
2021/06/08 00:23:11;;;;;;;13.05;9.90;;;;;;;;;;5086325;28;20497;-66
2021/06/08 00:25:38;;;;;;;13.82;9.88;;;;;;;;;;5087009;28;20857;-67
2021/06/08 00:28:05;;;;;;;10.50;8.95;;;;;;;;;;5066969;28;20391;-67
2021/06/08 00:30:31;;;;;;;13.80;9.77;;;;;;;;;;5085286;28;20399;-66
2021/06/08 00:32:56;;;;;;;11.75;9.57;;;;;;;;;;5096265;28;20416;-67
2021/06/08 00:35:23;;;;;;;11.88;9.50;;;;;;;;;;5104934;28;20398;-66
2021/06/08 00:37:49;;;;;;;10.77;8.70;;;;;;;;;;5105472;28;20388;-67
2021/06/08 00:40:15;;;;;;;11.15;9.07;;;;;;;;;;5104542;28;20376;-66
2021/06/08 00:52:18;;;;;;;10.07;8.65;;;;;;;;;;5103090;28;20749;-66
2021/06/08 00:54:44;;;;;;;11.05;8.88;;;;;;;;;;5101945;28;20404;-66
2021/06/08 00:57:10;;;;;;;12.00;9.15;;;;;;;;;;5102718;28;20838;-67
2021/06/08 00:59:38;;;;;;;11.65;9.13;;;;;;;;;;5096407;28;20428;-66
2021/06/08 01:02:04;;;;;;;11.25;9.10;;;;;;;;;;5096381;28;20405;-66
2021/06/08 01:04:30;;;;;;;11.85;9.10;;;;;;;;;;5098935;28;20394;-68
2021/06/08 01:06:56;;;;;;;10.63;8.87;;;;;;;;;;5083573;28;20397;-67
2021/06/08 01:09:22;;;;;;;10.38;8.30;;;;;;;;;;5105412;28;20838;-66
2021/06/08 01:11:48;;;;;;;10.35;8.25;;;;;;;;;;5098744;28;20401;-66
2021/06/08 01:14:14;;;;;;;11.32;8.10;;;;;;;;;;5100362;28;20397;-66
2021/06/08 01:16:40;;;;;;;11.03;9.27;;;;;;;;;;5100092;28;20384;-67
2021/06/08 01:19:06;;;;;;;10.93;9.05;;;;;;;;;;5085478;28;20397;-67
2021/06/08 01:21:33;;;;;;;11.90;8.75;;;;;;;;;;5097336;28;20860;-67
2021/06/08 01:23:59;;;;;;;11.38;9.23;;;;;;;;;;5100985;28;20400;-67
2021/06/08 01:26:26;;;;;;;11.93;9.13;;;;;;;;;;5097613;28;20760;-67
2021/06/08 01:28:53;;;;;;;10.32;8.05;;;;;;;;;;5095651;28;20417;-66
2021/06/08 01:31:21;;;;;;;11.93;8.80;;;;;;;;;;5104967;28;20396;-66
2021/06/08 01:33:48;;;;;;;10.63;9.05;;;;;;;;;;5092486;28;20878;-66
2021/06/08 01:36:18;;;;;;;12.25;9.32;;;;;;;;;;5103470;28;20400;-66
2021/06/08 01:38:45;;;;;;;10.87;8.93;;;;;;;;;;5096837;28;20490;-67
2021/06/08 01:41:12;;;;;;;11.70;8.65;;;;;;;;;;5097948;28;20437;-66
2021/06/08 01:43:40;;;;;;;11.27;8.60;;;;;;;;;;5095855;28;20476;-66
2021/06/08 01:46:06;;;;;;;11.13;8.97;;;;;;;;;;5098265;28;20628;-66
2021/06/08 01:48:32;;;;;;;10.93;8.65;;;;;;;;;;5100747;28;20435;-67
2021/06/08 01:51:01;;;;;;;12.55;8.40;;;;;;;;;;5101607;28;20486;-66
2021/06/08 01:53:46;;;;;;;11.68;8.02;;;;;;;;;;5095008;28;20418;-66
2021/06/08 01:56:13;;;;;;;11.00;8.55;;;;;;;;;;5101613;28;21130;-66
2021/06/08 01:58:50;;;;;;;11.00;9.20;;;;;;;;;;5099518;28;20402;-66
2021/06/08 02:01:21;;;;;;;12.55;9.43;;;;;;;;;;5096953;28;20875;-66
2021/06/08 02:03:54;;;;;;;10.88;9.32;;;;;;;;;;5102435;28;20498;-66
2021/06/08 02:06:23;;;;;;;12.93;10.73;;;;;;;;;;5100442;28;20392;-66
2021/06/08 02:08:51;;;;;;;11.77;9.55;;;;;;;;;;5100515;28;20382;-67
2021/06/08 02:11:25;;;;;;;11.40;9.68;;;;;;;;;;5103806;28;20411;-67
2021/06/08 02:14:01;;;;;;;11.23;9.82;;;;;;;;;;5108906;28;20918;-67
2021/06/08 02:16:36;;;;;;;10.73;9.52;;;;;;;;;;5106010;28;20396;-66
2021/06/08 02:19:05;;;;;;;11.98;9.93;;;;;;;;;;5098246;28;20393;-66
2021/06/08 02:21:35;;;;;;;10.82;8.98;;;;;;;;;;5103002;28;20391;-67
2021/06/08 02:24:02;;;;;;;11.02;8.65;;;;;;;;;;5103282;28;20388;-66
2021/06/08 02:26:29;;;;;;;13.05;8.93;;;;;;;;;;5105288;28;20392;-66
2021/06/08 02:28:55;;;;;;;10.20;8.90;;;;;;;;;;5098815;28;20479;-66
2021/06/08 02:31:22;;;;;;;11.57;9.48;;;;;;;;;;5104765;28;20386;-66
2021/06/08 02:33:49;;;;;;;11.35;8.80;;;;;;;;;;5102165;28;20420;-66
2021/06/08 02:36:15;;;;;;;12.05;9.35;;;;;;;;;;5103858;28;20380;-67
2021/06/08 02:38:42;;;;;;;11.02;9.52;;;;;;;;;;5100064;28;20436;-67
2021/06/08 02:41:09;;;;;;;12.27;10.03;;;;;;;;;;5091607;28;20747;-66
2021/06/08 02:43:36;;;;;;;14.60;10.55;;;;;;;;;;5100242;28;20715;-66
2021/06/08 02:46:03;;;;;;;11.60;9.80;;;;;;;;;;5104351;28;20386;-67
2021/06/08 02:48:29;;;;;;;10.77;9.27;;;;;;;;;;5099993;28;20435;-66
2021/06/08 02:50:55;;;;;;;12.73;9.63;;;;;;;;;;5104520;28;20862;-67
2021/06/08 02:53:23;;;;;;;11.40;10.05;;;;;;;;;;5102780;28;20424;-66
2021/06/08 02:55:50;;;;;;;14.50;10.20;;;;;;;;;;5104669;28;20386;-66
2021/06/08 02:58:16;;;;;;;13.57;10.43;;;;;;;;;;5099463;28;20759;-66
2021/06/08 03:00:42;;;;;;;12.30;10.05;;;;;;;;;;5101564;28;20449;-66
2021/06/08 03:03:09;;;;;;;13.00;10.43;;;;;;;;;;5107115;28;20639;-67
2021/06/08 03:05:38;;;;;;;11.82;9.90;;;;;;;;;;5097716;28;20398;-66
2021/06/08 03:08:17;;;;;;;13.18;10.40;;;;;;;;;;5104165;28;20395;-66
2021/06/08 03:10:43;;;;;;;14.13;10.60;;;;;;;;;;5103868;28;20404;-66
2021/06/08 03:13:10;;;;;;;11.95;9.73;;;;;;;;;;5096158;28;20420;-66
2021/06/08 03:15:38;;;;;;;12.07;10.55;;;;;;;;;;5101770;28;20396;-66
2021/06/08 03:18:08;;;;;;;12.75;10.35;;;;;;;;;;5107357;28;20834;-67
2021/06/08 03:20:37;;;;;;;12.88;10.90;;;;;;;;;;5104011;28;20388;-66
2021/06/08 03:23:06;;;;;;;11.63;10.40;;;;;;;;;;5106063;28;20903;-66
2021/06/08 03:25:33;;;;;;;12.05;10.73;;;;;;;;;;5100298;28;20400;-67
2021/06/08 03:28:00;;;;;;;12.20;10.63;;;;;;;;;;5098123;28;20402;-66
2021/06/08 03:30:26;;;;;;;13.67;10.20;;;;;;;;;;5101800;28;20403;-66
2021/06/08 03:32:53;;;;;;;13.95;10.50;;;;;;;;;;5102233;28;20424;-66
2021/06/08 03:35:21;;;;;;;11.38;9.93;;;;;;;;;;5103224;28;20473;-67
2021/06/08 03:37:47;;;;;;;14.30;10.90;;;;;;;;;;5100752;28;20393;-67
2021/06/08 03:40:14;;;;;;;13.02;10.63;;;;;;;;;;5106512;28;20437;-67
2021/06/08 03:42:41;;;;;;;12.73;10.88;;;;;;;;;;5103313;28;20399;-66
2021/06/08 03:45:11;;;;;;;13.02;11.55;;;;;;;;;;5106974;28;20384;-67
2021/06/08 03:47:37;;;;;;;13.90;11.25;;;;;;;;;;5103867;28;20439;-67
2021/06/08 03:50:04;;;;;;;12.63;10.70;;;;;;;;;;5099891;28;20479;-66
2021/06/08 03:52:30;;;;;;;12.38;10.93;;;;;;;;;;5097713;28;20503;-66
2021/06/08 03:54:56;;;;;;;15.43;10.18;;;;;;;;;;5101590;28;20535;-66
2021/06/08 03:57:28;;;;;;;10.52;9.20;;;;;;;;;;5097152;28;20510;-66
2021/06/08 03:59:56;;;;;;;12.45;9.73;;;;;;;;;;5102718;28;20416;-66
2021/06/08 04:02:22;;;;;;;10.63;9.52;;;;;;;;;;5097915;28;20396;-66
2021/06/08 04:04:49;;;;;;;10.73;9.60;;;;;;;;;;5098486;28;20446;-66
2021/06/08 04:07:15;;;;;;;12.17;10.03;;;;;;;;;;5103983;28;20388;-67
2021/06/08 04:09:41;;;;;;;10.32;9.23;;;;;;;;;;5098035;28;20499;-65
2021/06/08 04:12:07;;;;;;;11.35;9.80;;;;;;;;;;5098031;28;20491;-66
2021/06/08 04:14:34;;;;;;;10.23;8.93;;;;;;;;;;5102838;28;20725;-66
2021/06/08 04:17:00;;;;;;;11.95;9.32;;;;;;;;;;5101486;28;20388;-66
2021/06/08 04:19:27;;;;;;;10.73;9.43;;;;;;;;;;5103882;28;20385;-66
2021/06/08 04:21:53;;;;;;;10.32;9.18;;;;;;;;;;5100200;28;20411;-67
2021/06/08 04:24:19;;;;;;;10.43;9.23;;;;;;;;;;5096990;28;20396;-66
2021/06/08 04:26:45;;;;;;;10.93;8.90;;;;;;;;;;5095846;28;20432;-66
2021/06/08 04:29:11;;;;;;;10.23;8.65;;;;;;;;;;5103375;28;20466;-66
2021/06/08 04:31:37;;;;;;;11.10;9.27;;;;;;;;;;5093551;28;20390;-67
2021/06/08 04:34:03;;;;;;;11.32;9.50;;;;;;;;;;5106326;28;20828;-66
2021/06/08 04:36:29;;;;;;;12.38;9.48;;;;;;;;;;5081654;28;20385;-66
2021/06/08 04:38:56;;;;;;;11.05;9.10;;;;;;;;;;5098077;28;20386;-68
2021/06/08 04:41:22;;;;;;;11.23;9.55;;;;;;;;;;5100651;28;20416;-66
2021/06/08 04:43:48;;;;;;;14.10;10.27;;;;;;;;;;5099247;28;20388;-66
2021/06/08 04:46:14;;;;;;;11.48;10.27;;;;;;;;;;5098282;28;20453;-66
2021/06/08 04:48:41;;;;;;;11.80;10.15;;;;;;;;;;5097890;28;20380;-66
2021/06/08 04:51:07;;;;;;;11.75;9.88;;;;;;;;;;5099680;28;20376;-66
2021/06/08 04:53:33;;;;;;;11.32;9.77;;;;;;;;;;5095141;28;20432;-66
2021/06/08 04:55:59;;;;;;;13.32;10.70;;;;;;;;;;5104296;28;20453;-66
2021/06/08 04:58:25;;;;;;;12.10;10.32;;;;;;;;;;5101917;28;20706;-66
2021/06/08 05:00:56;;;;;;;14.95;11.02;;;;;;;;;;5098801;28;20937;-66
2021/06/08 05:03:25;;;;;;;11.80;10.60;;;;;;;;;;5098224;28;20394;-66
2021/06/08 05:05:52;;;;;;;12.35;9.98;;;;;;;;;;5098112;28;20463;-66
2021/06/08 05:08:20;;;;;;;11.63;10.27;;;;;;;;;;5099070;28;20440;-66
2021/06/08 05:10:55;;;;;;;12.25;10.30;;;;;;;;;;5098000;28;20397;-68
2021/06/08 05:13:21;;;;;;;12.80;10.07;;;;;;;;;;5099141;28;20439;-66
2021/06/08 05:15:51;;;;;;;12.90;10.60;;;;;;;;;;5100929;28;20390;-66
2021/06/08 05:18:17;;;;;;;12.90;10.27;;;;;;;;;;5097468;28;20386;-66
2021/06/08 05:20:45;;;;;;;12.70;10.95;;;;;;;;;;5101161;28;20437;-69
2021/06/08 05:23:12;;;;;;;12.68;10.77;;;;;;;;;;5102469;28;20463;-67
2021/06/08 05:25:39;;;;;;;11.50;10.23;;;;;;;;;;5106189;28;20912;-67
2021/06/08 05:28:06;;;;;;;12.35;10.38;;;;;;;;;;5099872;28;20473;-67
2021/06/08 05:30:32;;;;;;;12.90;10.10;;;;;;;;;;5093842;28;20693;-66
2021/06/08 05:32:58;;;;;;;12.07;10.13;;;;;;;;;;5100926;28;20428;-66
2021/06/08 05:35:28;;;;;;;11.33;10.00;;;;;;;;;;5105224;28;20396;-67
2021/06/08 05:37:54;;;;;;;11.47;10.17;;;;;;;;;;5097155;28;21103;-66
2021/06/08 05:40:22;;;;;;;10.93;9.82;;;;;;;;;;5104921;28;20897;-67
2021/06/08 05:42:48;;;;;;;10.43;9.33;;;;;;;;;;5104149;28;20385;-66
2021/06/08 05:45:14;;;;;;;11.15;9.95;;;;;;;;;;5104615;28;20682;-66
2021/06/08 05:47:41;;;;;;;11.85;9.82;;;;;;;;;;5097276;28;20384;-67
2021/06/08 05:50:07;;;;;;;13.20;10.73;;;;;;;;;;5104155;28;20541;-67
2021/06/08 05:52:35;;;;;;;11.75;10.02;;;;;;;;;;5112753;28;20427;-67
2021/06/08 05:55:01;;;;;;;12.63;9.75;;;;;;;;;;5110741;28;20376;-69
2021/06/08 05:57:27;;;;;;;11.27;10.07;;;;;;;;;;5103740;28;20427;-66
2021/06/08 05:59:53;;;;;;;11.50;10.00;;;;;;;;;;5100855;28;20862;-66
2021/06/08 06:02:20;;;;;;;13.18;10.05;;;;;;;;;;5106523;28;20407;-66
2021/06/08 06:04:46;;;;;;;13.70;10.20;;;;;;;;;;5101389;28;20817;-67
2021/06/08 06:07:13;;;;;;;12.75;11.02;;;;;;;;;;5100800;28;20889;-66
2021/06/08 06:09:39;;;;;;;13.20;10.75;;;;;;;;;;5100552;28;20427;-67
2021/06/08 06:12:09;;;;;;;13.83;12.00;;;;;;;;;;5100021;28;20456;-67
2021/06/08 06:14:36;;;;;;;13.02;11.18;;;;;;;;;;5103085;28;20396;-67
2021/06/08 06:17:02;;;;;;;13.50;10.45;;;;;;;;;;5101214;28;20405;-67
2021/06/08 06:19:28;;;;;;;15.15;11.10;;;;;;;;;;5104217;28;20433;-67
2021/06/08 06:21:55;;;;;;;17.88;11.73;;;;;;;;;;5104392;28;20425;-67
2021/06/08 06:24:21;;;;;;;15.98;10.48;;;;;;;;;;5100004;28;21050;-67
2021/06/08 06:26:48;;;;;;;15.63;9.40;;;;;;;;;;5090866;28;21581;-66
2021/06/08 06:29:14;;;;;;;14.95;10.38;;;;;;;;;;5107396;28;20449;-67
2021/06/08 06:31:44;;;;;;;13.40;8.93;;;;;;;;;;5104844;28;20923;-67
2021/06/08 06:34:11;;;;;;;12.27;8.05;;;;;;;;;;5096972;28;20823;-68
2021/06/08 06:36:37;;;;;;;12.70;6.50;;;;;;;;;;5102480;28;20392;-67
2021/06/08 06:39:10;;;;;;;9.70;5.72;;;;;;;;;;5103165;28;20403;-67
2021/06/08 06:41:41;;;;;;;8.07;5.15;;;;;;;;;;5106031;28;20483;-67
2021/06/08 06:44:08;;;;;;;7.55;4.32;;;;;;;;;;5098539;28;20855;-67
2021/06/08 06:46:34;;;;;;;6.88;4.03;;;;;;;;;;5104503;28;20402;-67
2021/06/08 06:49:00;;;;;;;7.75;4.22;;;;;;;;;;5103560;28;20480;-67
2021/06/08 06:51:26;;;;;;;5.38;3.40;;;;;;;;;;5105027;28;20910;-67
2021/06/08 06:53:55;;;;;;;5.75;2.90;;;;;;;;;;5102396;28;20425;-67
2021/06/08 06:56:22;;;;;;;5.82;2.80;;;;;;;;;;5100588;28;20388;-68
2021/06/08 06:58:48;;;;;;;6.55;2.85;;;;;;;;;;5105190;28;20497;-67
2021/06/08 07:01:14;;;;;;;5.13;2.45;;;;;;;;;;5106546;28;20396;-68
2021/06/08 07:03:41;;;;;;;4.63;2.60;;;;;;;;;;5103031;28;20886;-67
2021/06/08 07:06:08;;;;;;;5.55;2.55;;;;;;;;;;5102833;28;20402;-67
2021/06/08 07:08:34;;;;;;;4.50;2.10;;;;;;;;;;5101170;28;20393;-68
2021/06/08 07:11:00;;;;;;;5.32;2.20;;;;;;;;;;5102858;28;20394;-67
2021/06/08 07:13:27;;;;;;;4.85;2.40;;;;;;;;;;5104754;28;20435;-67
2021/06/08 07:15:53;;;;;;;5.32;2.22;;;;;;;;;;5103395;28;20407;-68
2021/06/08 07:18:19;;;;;;;4.43;2.20;;;;;;;;;;5104771;28;20414;-66
2021/06/08 07:20:46;;;;;;;6.15;2.30;;;;;;;;;;5104151;28;20469;-67
2021/06/08 07:23:16;;;;;;;4.18;1.70;;;;;;;;;;5106702;28;20680;-67
2021/06/08 07:25:43;;;;;;;4.78;1.92;;;;;;;;;;5107619;28;20400;-67
2021/06/08 07:28:09;;;;;;;6.05;2.03;;;;;;;;;;5101479;28;20413;-67
2021/06/08 07:30:36;;;;;;;5.55;2.20;;;;;;;;;;5102648;28;20404;-67
2021/06/08 07:33:14;;;;;;;2.78;1.80;;;;;;;;;;5098926;28;21091;-67
2021/06/08 07:35:53;;;;;;;4.10;1.90;;;;;;;;;;5106183;28;20427;-67
2021/06/08 07:38:22;;;;;;;6.07;2.10;;;;;;;;;;5103948;28;20449;-66
2021/06/08 07:40:54;;;;;;;4.90;1.90;;;;;;;;;;5105271;28;20866;-67
2021/06/08 07:43:21;;;;;;;3.42;1.80;;;;;;;;;;5090348;28;20802;-68
2021/06/08 07:45:49;;;;;;;4.28;1.75;;;;;;;;;;5098161;28;20392;-66
2021/06/08 07:48:17;;;;;;;6.15;1.80;;;;;;;;;;5100967;28;20397;-67
2021/06/08 07:50:49;;;;;;;3.60;1.75;;;;;;;;;;5103783;28;20715;-67
2021/06/08 07:53:15;;;;;;;3.35;1.50;;;;;;;;;;5102546;28;20416;-67
2021/06/08 07:55:43;;;;;;;4.22;1.60;;;;;;;;;;5101706;28;20384;-66
2021/06/08 07:58:09;;;;;;;7.38;1.98;;;;;;;;;;5102838;28;20401;-66
2021/06/08 08:00:36;;;;;;;5.63;1.88;;;;;;;;;;5103339;28;20384;-66
2021/06/08 08:05:47;;;;;;;3.70;1.80;;;;;;;;;;5097814;28;20511;-68
2021/06/08 08:08:15;;;;;;;5.13;2.40;;;;;;;;;;5101095;28;20396;-66
2021/06/08 08:10:43;;;;;;;5.07;2.20;;;;;;;;;;5100105;28;20384;-66
2021/06/08 08:13:09;;;;;;;4.78;2.08;;;;;;;;;;5096801;28;20505;-67
2021/06/08 08:15:35;;;;;;;4.72;2.33;;;;;;;;;;5104083;28;20884;-67
2021/06/08 08:18:01;;;;;;;4.00;2.10;;;;;;;;;;5099821;28;20437;-67
2021/06/08 08:20:40;;;;;;;5.10;2.25;;;;;;;;;;5105891;28;20402;-66
2021/06/08 08:23:06;;;;;;;3.88;2.30;;;;;;;;;;5102180;28;20401;-66
2021/06/08 08:25:32;;;;;;;5.20;2.50;;;;;;;;;;5104054;28;20419;-67
2021/06/08 08:27:58;;;;;;;7.18;3.10;;;;;;;;;;5099835;28;20480;-67
2021/06/08 08:30:24;;;;;;;6.18;2.90;;;;;;;;;;5101562;28;20837;-66
2021/06/08 08:32:50;;;;;;;7.43;3.50;;;;;;;;;;5101404;28;20431;-67
2021/06/08 08:35:33;;;;;;;6.05;3.45;;;;;;;;;;5054830;28;20817;-66
2021/06/08 08:37:59;;;;;;;5.75;3.42;;;;;;;;;;5095362;28;20700;-67
2021/06/08 08:40:26;;;;;;;5.63;3.30;;;;;;;;;;5098311;28;20401;-66
2021/06/08 08:42:52;;;;;;;6.40;3.35;;;;;;;;;;5102711;28;20384;-66
2021/06/08 08:45:19;;;;;;;6.95;3.20;;;;;;;;;;5102551;27;20866;-66
2021/06/08 08:47:45;;;;;;;5.78;3.65;;;;;;;;;;5102713;28;20857;-66
2021/06/08 08:50:15;;;;;;;6.63;3.28;;;;;;;;;;5103121;28;20481;-67
2021/06/08 08:52:43;;;;;;;5.75;3.88;;;;;;;;;;5100314;28;20422;-66
2021/06/08 08:55:10;;;;;;;6.55;4.05;;;;;;;;;;5086114;28;20397;-67
2021/06/08 08:57:36;;;;;;;5.90;3.85;;;;;;;;;;5098586;28;20409;-67
2021/06/08 09:00:03;;;;;;;5.53;3.35;;;;;;;;;;5100239;28;20532;-66
2021/06/08 09:02:32;;;;;;;5.88;3.13;;;;;;;;;;5099874;28;20392;-67
2021/06/08 09:04:59;;;;;;;5.70;3.60;;;;;;;;;;5102585;27;20423;-67
2021/06/08 09:07:25;;;;;;;4.80;3.20;;;;;;;;;;5106144;28;20392;-66
2021/06/08 09:09:52;;;;;;;6.00;3.80;;;;;;;;;;5100746;28;20383;-67
2021/06/08 09:12:18;;;;;;;4.57;3.00;;;;;;;;;;5108522;28;20480;-66
2021/06/08 09:14:44;;;;;;;5.22;3.30;;;;;;;;;;5101055;28;20415;-67
2021/06/08 09:17:15;;;;;;;5.55;3.38;;;;;;;;;;5100171;28;20830;-67
2021/06/08 09:19:41;;;;;;;4.68;2.83;;;;;;;;;;5106187;28;20385;-66
2021/06/08 09:22:09;;;;;;;5.78;3.15;;;;;;;;;;5104986;28;20396;-67
2021/06/08 09:24:36;;;;;;;4.65;3.05;;;;;;;;;;5104714;28;20384;-66
2021/06/08 09:27:06;;;;;;;5.40;3.03;;;;;;;;;;5102484;28;20803;-66
2021/06/08 09:29:33;;;;;;;4.40;2.58;;;;;;;;;;5099572;28;20404;-67
2021/06/08 09:32:18;;;;;;;5.37;2.73;;;;;;;;;;5101054;28;20501;-67
2021/06/08 09:34:45;;;;;;;5.70;2.85;;;;;;;;;;5106945;28;20472;-66
2021/06/08 09:37:11;;;;;;;4.47;2.88;;;;;;;;;;5102564;28;20475;-67
2021/06/08 09:39:48;;;;;;;5.13;2.92;;;;;;;;;;5098190;28;20507;-67
2021/06/08 09:42:24;;;;;;;5.78;2.85;;;;;;;;;;5100961;28;20392;-67
2021/06/08 09:44:50;;;;;;;5.57;2.92;;;;;;;;;;5097074;28;20408;-67
2021/06/08 09:47:26;;;;;;;4.80;2.60;;;;;;;;;;5099262;28;20416;-66
2021/06/08 09:49:54;;;;;;;4.82;2.90;;;;;;;;;;5099938;28;20403;-67
2021/06/08 09:52:20;;;;;;;4.80;2.70;;;;;;;;;;5100106;28;20436;-67
2021/06/08 09:54:50;;;;;;;5.07;2.72;;;;;;;;;;5100980;28;20931;-67
2021/06/08 09:57:18;;;;;;;4.28;2.60;;;;;;;;;;5103251;28;20396;-67
2021/06/08 09:59:48;;;;;;;6.35;2.38;;;;;;;;;;5103266;28;20410;-67
2021/06/08 10:02:34;;;;;;;4.93;2.50;;;;;;;;;;5102118;28;20928;-67
2021/06/08 10:05:18;;;;;;;4.97;2.83;;;;;;;;;;5100699;28;20917;-66
2021/06/08 10:07:45;;;;;;;5.40;3.10;;;;;;;;;;5100670;28;20397;-67
2021/06/08 10:10:13;;;;;;;5.40;2.60;;;;;;;;;;5099842;28;20449;-67
2021/06/08 10:12:54;;;;;;;5.22;2.60;;;;;;;;;;5103191;28;20410;-68
2021/06/08 10:15:20;;;;;;;4.83;2.40;;;;;;;;;;5099954;28;20450;-67
2021/06/08 10:17:46;;;;;;;4.82;2.40;;;;;;;;;;5099221;28;20408;-68
2021/06/08 10:20:24;;;;;;;5.75;2.40;;;;;;;;;;5104615;28;20392;-67
2021/06/08 10:22:51;;;;;;;3.45;2.03;;;;;;;;;;5106021;28;20476;-68
2021/06/08 10:25:17;;;;;;;4.70;2.40;;;;;;;;;;5106835;28;20958;-67
2021/06/08 10:27:43;;;;;;;4.63;2.53;;;;;;;;;;5099191;28;20781;-67
2021/06/08 10:30:10;;;;;;;5.20;2.47;;;;;;;;;;5105303;28;20396;-67
2021/06/08 10:32:37;;;;;;;5.22;2.28;;;;;;;;;;5103039;28;20535;-67
2021/06/08 10:35:06;;;;;;;4.50;2.30;;;;;;;;;;5107059;27;20429;-70
2021/06/08 10:37:33;;;;;;;4.53;2.37;;;;;;;;;;5104313;28;20392;-67
2021/06/08 10:40:00;;;;;;;5.53;2.70;;;;;;;;;;5104874;27;20394;-67
2021/06/08 10:42:27;;;;;;;3.93;2.37;;;;;;;;;;5098959;28;20392;-67
2021/06/08 10:45:07;;;;;;;3.83;2.35;;;;;;;;;;5098009;28;20392;-67
2021/06/08 10:50:00;;;;;;;4.57;2.60;;;;;;;;;;5101964;28;20843;-67
2021/06/08 10:52:28;;;;;;;5.97;2.20;;;;;;;;;;5104740;28;20420;-67
2021/06/08 10:54:54;;;;;;;4.88;2.25;;;;;;;;;;5100142;28;20461;-67
2021/06/08 10:57:21;;;;;;;6.30;2.50;;;;;;;;;;5103101;28;20457;-67
2021/06/08 10:59:48;;;;;;;3.70;2.15;;;;;;;;;;5105206;28;20484;-68
2021/06/08 11:02:33;;;;;;;3.50;2.10;;;;;;;;;;5103254;27;20409;-67
2021/06/08 11:04:59;;;;;;;3.97;2.25;;;;;;;;;;5106988;28;20873;-67
2021/06/08 11:07:44;;;;;;;3.70;2.30;;;;;;;;;;5106337;28;20410;-68
2021/06/08 11:10:29;;;;;;;4.50;2.40;;;;;;;;;;5100454;28;20456;-67
2021/06/08 11:13:15;;;;;;;3.60;2.10;;;;;;;;;;5097622;28;20422;-67
2021/06/08 11:15:45;;;;;;;4.95;2.30;;;;;;;;;;5105317;28;20400;-67
2021/06/08 11:18:20;;;;;;;3.90;2.07;;;;;;;;;;5103562;28;20826;-68
2021/06/08 11:21:07;;;;;;;5.53;2.20;;;;;;;;;;5095643;28;20409;-67
2021/06/08 11:23:43;;;;;;;4.38;2.20;;;;;;;;;;5102214;28;20782;-67
2021/06/08 11:26:13;;;;;;;3.67;2.22;;;;;;;;;;5100665;28;20386;-68
2021/06/08 11:28:43;;;;;;;3.70;2.10;;;;;;;;;;5101667;28;21143;-67
2021/06/08 11:31:11;;;;;;;3.33;1.92;;;;;;;;;;5103203;28;20414;-67
2021/06/08 11:33:38;;;;;;;4.35;2.10;;;;;;;;;;5088837;28;20503;-67
2021/06/08 11:36:20;;;;;;;5.32;2.00;;;;;;;;;;5085640;28;20857;-67
2021/06/08 11:38:47;;;;;;;3.83;1.97;;;;;;;;;;5076796;28;20412;-67
2021/06/08 11:41:14;;;;;;;4.10;2.10;;;;;;;;;;5076878;28;20471;-69
2021/06/08 11:43:48;;;;;;;4.70;2.28;;;;;;;;;;5080780;28;20477;-67
2021/06/08 11:46:15;;;;;;;4.33;2.20;;;;;;;;;;5075362;28;20427;-67
2021/06/08 11:48:45;;;;;;;4.25;2.20;;;;;;;;;;5085361;28;20697;-67
2021/06/08 11:51:10;;;;;;;4.72;2.38;;;;;;;;;;5081759;28;20410;-67
2021/06/08 11:53:56;;;;;;;4.85;2.28;;;;;;;;;;5080550;28;20502;-67
2021/06/08 11:56:40;;;;;;;4.28;2.17;;;;;;;;;;5082883;28;20889;-68
2021/06/08 11:59:07;;;;;;;5.03;2.13;;;;;;;;;;5079686;28;20395;-69
2021/06/08 12:01:38;;;;;;;3.88;2.15;;;;;;;;;;5081448;28;21190;-67
2021/06/08 12:04:04;;;;;;;4.90;2.35;;;;;;;;;;5086509;28;22063;-68
2021/06/08 12:06:49;;;;;;;4.68;2.20;;;;;;;;;;5080337;28;20469;-68
2021/06/08 12:09:17;;;;;;;4.75;2.35;;;;;;;;;;5086752;28;20398;-68
2021/06/08 12:11:44;;;;;;;4.03;2.00;;;;;;;;;;5086600;28;20394;-68
2021/06/08 12:14:11;;;;;;;5.85;2.17;;;;;;;;;;5084739;28;20418;-68
2021/06/08 12:16:37;;;;;;;5.90;2.40;;;;;;;;;;5073081;28;21090;-68
2021/06/08 12:19:09;;;;;;;7.88;2.15;;;;;;;;;;5040256;28;20418;-68
2021/06/08 12:21:35;;;;;;;4.47;2.03;;;;;;;;;;5043161;28;20496;-68
2021/06/08 12:24:01;;;;;;;5.50;2.10;;;;;;;;;;5043756;28;20682;-68
2021/06/08 12:26:28;;;;;;;4.23;1.83;;;;;;;;;;5043959;28;20403;-69
2021/06/08 12:29:08;;;;;;;3.42;2.08;;;;;;;;;;5045745;28;20406;-68
2021/06/08 12:31:35;;;;;;;4.43;1.92;;;;;;;;;;5043208;28;20413;-68
2021/06/08 12:34:09;;;;;;;3.47;1.95;;;;;;;;;;5063127;28;21109;-68
2021/06/08 12:36:38;;;;;;;3.83;1.70;;;;;;;;;;5063974;28;20454;-67
2021/06/08 12:39:10;;;;;;;2.95;1.90;;;;;;;;;;5067155;28;20537;-67
2021/06/08 12:41:37;;;;;;;3.20;1.73;;;;;;;;;;5058994;28;20397;-67
2021/06/08 12:44:03;;;;;;;4.47;1.88;;;;;;;;;;5072895;28;20495;-67
2021/06/08 12:46:34;;;;;;;4.60;1.97;;;;;;;;;;5059698;28;20441;-68
2021/06/08 12:49:10;;;;;;;3.40;1.70;;;;;;;;;;5062415;28;20409;-68
2021/06/08 12:51:38;;;;;;;2.80;1.80;;;;;;;;;;5060251;28;20481;-68
2021/06/08 12:54:05;;;;;;;3.70;1.90;;;;;;;;;;5062017;28;20461;-67
2021/06/08 12:56:31;;;;;;;3.00;2.03;;;;;;;;;;5061461;28;20381;-67
2021/06/08 12:58:58;;;;;;;5.70;2.00;;;;;;;;;;5063827;28;20474;-67
2021/06/08 13:01:24;;;;;;;5.38;1.92;;;;;;;;;;5061655;28;20458;-67
2021/06/08 13:03:50;;;;;;;2.70;1.55;;;;;;;;;;5060868;28;20406;-67
2021/06/08 13:06:20;;;;;;;3.15;1.75;;;;;;;;;;5065801;28;20390;-68
2021/06/08 13:08:47;;;;;;;3.75;1.80;;;;;;;;;;5063762;28;20698;-67
2021/06/08 13:11:17;;;;;;;4.93;2.03;;;;;;;;;;5063445;28;20603;-67
2021/06/08 13:13:43;;;;;;;3.83;1.90;;;;;;;;;;5061381;28;21047;-68
2021/06/08 13:16:09;;;;;;;3.20;1.90;;;;;;;;;;5065871;28;20388;-68
2021/06/08 13:18:44;;;;;;;4.03;1.90;;;;;;;;;;5067866;28;20891;-68
2021/06/08 13:21:10;;;;;;;3.72;1.90;;;;;;;;;;5060387;28;20848;-68
2021/06/08 13:23:36;;;;;;;3.63;1.67;;;;;;;;;;5062257;28;20399;-68
2021/06/08 13:26:10;;;;;;;3.77;1.80;;;;;;;;;;5062486;28;20739;-68
2021/06/08 13:28:37;;;;;;;4.72;1.95;;;;;;;;;;5059402;28;20499;-68
2021/06/08 13:31:03;;;;;;;3.58;1.70;;;;;;;;;;5060797;28;20492;-68
2021/06/08 13:33:31;;;;;;;5.20;1.77;;;;;;;;;;5060060;28;20491;-68
2021/06/08 13:35:57;;;;;;;3.75;1.90;;;;;;;;;;5037448;28;20724;-68
2021/06/08 13:38:23;;;;;;;3.92;1.90;;;;;;;;;;5040381;28;20464;-68
2021/06/08 13:40:50;;;;;;;3.90;1.88;;;;;;;;;;5039456;28;20950;-69
2021/06/08 13:43:16;;;;;;;3.90;2.27;;;;;;;;;;5042119;28;20871;-68
2021/06/08 13:45:42;;;;;;;3.40;2.25;;;;;;;;;;5042589;28;20417;-68
2021/06/08 13:48:19;;;;;;;4.07;1.73;;;;;;;;;;5041547;28;22136;-70
2021/06/08 13:50:46;;;;;;;3.67;2.05;;;;;;;;;;5039792;28;21194;-68
2021/06/08 13:53:22;;;;;;;4.10;2.20;;;;;;;;;;5044373;28;20585;-68
2021/06/08 13:56:04;;;;;;;4.68;2.70;;;;;;;;;;5044831;28;20428;-68
2021/06/08 14:01:22;;;;;;;5.35;2.35;;;;;;;;;;5048251;28;20420;-68
2021/06/08 14:04:03;;;;;;;5.38;2.40;;;;;;;;;;5049564;28;20899;-68
2021/06/08 14:06:29;;;;;;;5.15;2.25;;;;;;;;;;5047017;28;20421;-68
2021/06/08 14:08:57;;;;;;;5.83;2.23;;;;;;;;;;5047593;28;20474;-68
2021/06/08 14:11:54;;;;;;;6.60;2.42;;;;;;;;;;5043295;28;20455;-69
2021/06/08 14:14:27;;;;;;;4.60;2.40;;;;;;;;;;5023457;28;20879;-68
2021/06/08 14:16:54;;;;;;;3.80;2.38;;;;;;;;;;5042094;28;20394;-68
2021/06/08 14:19:20;;;;;;;5.35;2.53;;;;;;;;;;5039856;28;20387;-68
2021/06/08 14:21:48;;;;;;;5.28;2.53;;;;;;;;;;5046380;28;20462;-68
2021/06/08 14:24:18;;;;;;;4.80;2.58;;;;;;;;;;5043630;28;20398;-68
2021/06/08 14:26:44;;;;;;;4.50;2.53;;;;;;;;;;5049388;28;20398;-68
2021/06/08 14:29:11;;;;;;;5.28;2.80;;;;;;;;;;5044052;28;20457;-68
2021/06/08 14:31:37;;;;;;;4.38;2.50;;;;;;;;;;5043447;28;20395;-68
2021/06/08 14:34:03;;;;;;;3.20;2.28;;;;;;;;;;5047420;28;20850;-68
2021/06/08 14:36:29;;;;;;;4.78;2.63;;;;;;;;;;5070487;28;20409;-68
2021/06/08 14:38:56;;;;;;;4.47;2.50;;;;;;;;;;5064581;28;20393;-68
2021/06/08 14:41:22;;;;;;;5.73;3.17;;;;;;;;;;5059982;28;20384;-68
2021/06/08 14:43:48;;;;;;;5.10;2.80;;;;;;;;;;5067615;28;21142;-68
2021/06/08 14:46:14;;;;;;;5.22;2.67;;;;;;;;;;5062359;28;20391;-68
2021/06/08 14:48:40;;;;;;;4.55;2.65;;;;;;;;;;5068829;28;20394;-68
2021/06/08 14:51:06;;;;;;;5.72;2.80;;;;;;;;;;5064128;28;20454;-68
2021/06/08 14:53:33;;;;;;;5.55;2.83;;;;;;;;;;5060987;28;20453;-68
2021/06/08 14:55:59;;;;;;;5.80;3.33;;;;;;;;;;5062562;28;21028;-68
2021/06/08 14:58:25;;;;;;;8.23;2.92;;;;;;;;;;5058437;28;20400;-68
2021/06/08 15:00:51;;;;;;;6.40;3.30;;;;;;;;;;5059412;28;20399;-69